ACT        NSW        VIC        QLD        SA        WA        TAS        NT        INFO        CALC            by VK5ZD

Past Date/Time: (dd/mm/yyyy hh:mm or blank for current data)    

  Atmospheric Gas Attenuation - ITU Rec 676-11   --------------- dB/100km ---------------
WA Stations Date Time Temp RH % AH g/m3 Dew Point Wind Direction Speed kph Gust kph Barometer mB Rainfall Since 9am 24GHz 47GHz 76GHz 122GHz 134GHz 241GHz
Albany 05/09 09:00 13.1 64 7.3 6.4 7 1013.1 0 16.8 24.0 35.0 91.6 82.4 282.2
Albany Airport 05/09 17:10 17.2 65 9.52 10.6 22 33 1013.5 0 21.4 26.4 41.7 109.7 106.0 365.6
Badgingarra 05/09 17:10 14.9 74 9.43 10.3 22 30 1013.1 0 21.3 26.9 42.6 111.9 108.0 372.1
Barimunya 05/09 17:10 30.3 14 4.32 -0.1 20 41 1013.1 0 10.0 16.4 19.8 51.1 38.0 128.1
Barrow Island 05/09 17:10 24.4 62 13.8 16.6 39 46 1016 0 30.0 31.1 54.8 144.6 151.2 524.5
Beverley 05/09 09:00 13.2 88 10.1 11.3 0 1013.1 0 22.8 28.6 46.3 121.9 119.7 412.8
Bickley 05/09 17:10 14.3 75 9.21 9.9 13 20 1013.1 0 20.9 26.7 42.0 110.3 105.8 364.6
Boolgeeda 05/09 17:10 30.2 13 3.99 -1.2 26 39 1013.1 0 9.4 16.1 18.9 48.8 35.0 117.8
Bridgetown 05/09 17:10 15.5 73 9.65 10.7 9 17 1013.9 0.4 21.7 27.1 43.2 113.5 110.1 379.8
Brookton 05/09 09:00 13.4 66 7.67 7.3 0 1013.1 0.1 17.6 24.5 36.3 95.1 86.8 297.7
Broome 05/09 17:10 26.5 68 17.02 20.1 17 26 1014.7 0 36.6 35.8 66.8 176.6 191.3 664.5
Bulga Downs 05/09 09:00 16.8 66 9.44 10.5 9 1020.9 0 21.2 26.7 42.0 110.2 106.2 366.0
Bunbury 05/09 17:10 14.8 100 12.67 14.8 15 20 1013.7 1.2 28.3 32.6 56.7 149.5 154.2 533.4
Busselton Airport 05/09 17:10 15.7 82 10.97 12.6 11 19 1013.3 2.6 24.6 29.3 48.5 127.8 127.8 441.7
Cape Leeuwin 05/09 17:10 14.9 87 11.09 12.8 28 35 1013.4 2.2 24.9 29.7 49.6 130.5 130.9 452.3
Cape Naturaliste 05/09 17:10 13.7 93 11.01 12.6 24 28 1013.5 2.4 24.8 30.0 50.0 131.6 131.8 455.4
Carnarvon 05/09 17:10 20.8 68 12.31 14.7 11 17 1018.2 0 27.1 30.0 51.2 134.8 138.0 477.8
Christmas Creek 05/09 17:10 31.7 15 4.99 1.9 24 32 1012.4 0 11.4 16.9 21.3 55.2 43.4 147.3
Christmas Island 05/09 17:10 24.4 79 17.58 20.5 22 35 1015.9 0 38.0 37.8 71.3 188.5 205.2 712.7
Collie East 05/09 17:10 15.2 75 9.73 10.8 11 20 1013.1 2.4 21.9 27.3 43.6 114.7 111.6 384.8
Coondewanna 05/09 17:10 29.6 12 3.56 -2.8 20 35 1013.1 0 8.5 15.7 17.9 46.0 31.5 105.0
Cunderdin Airport 05/09 17:10 16.7 58 8.24 8.4 13 19 1016.4 0 18.7 24.6 37.1 97.3 90.5 311.2
Curtin 05/09 17:10 32.8 30 10.57 12.9 15 20 1012.4 0 22.8 23.6 37.9 99.6 98.4 340.8
Cygnet Bay 05/09 09:00 27.9 58 15.69 18.9 1017.9 0 33.7 33.1 60.2 158.9 169.8 589.8
Dalwallinu 05/09 17:10 17.5 52 7.75 7.5 17 24 1015.4 0 17.6 23.6 34.9 91.4 83.5 286.7
Derby 05/09 17:10 29.3 53 15.48 18.7 30 35 1013.4 0 33.1 32.0 58.0 153.3 163.5 567.7
Dwellingup 05/09 17:10 15.1 72 9.29 10.1 17 26 1014.4 0.8 21.0 26.7 42.0 110.2 105.9 365.0
Eliwana Airport 05/09 17:10 29.8 13 3.9 -1.5 22 35 1013.1 0 9.2 16.0 18.7 48.4 34.4 115.4
Esperance 05/09 17:10 19.4 51 8.51 9 11 13 1015.9 0 19.1 24.3 36.9 96.7 90.7 312.3
Esperance Airport 05/09 17:10 17.6 58 8.7 9.2 9 11 1016.3 0 19.6 25.1 38.5 100.9 95.2 327.8
Eucla 05/09 17:10 13.6 66 7.77 7.4 11 15 1020.9 0 17.8 24.9 36.9 96.7 88.4 303.4
Fitzroy Crossing 05/09 17:10 34 19 7.13 7.1 7 11 1012.3 0 15.7 19.0 26.7 69.7 62.0 213.0
Forrest 05/09 17:10 18.9 41 6.64 5.4 1019.7 0 15.2 21.8 30.5 79.6 69.3 237.0
Fortescue Dave Forrest 05/09 17:10 31.6 15 4.96 1.8 19 28 1011.7 0 11.3 16.9 21.2 55.0 43.1 146.4
Garden Island 05/09 17:10 17.1 75 10.92 12.6 20 30 1014.4 0.4 24.4 28.7 47.5 125.1 125.0 431.8
Geraldton Airport 05/09 17:10 16.2 90 12.41 14.6 22 30 1016.1 0.2 27.6 31.7 54.6 144.0 147.8 511.4
Gerangamete (Cfa) 05/09 18:50 10.8 86 8.5 8.6 19 22 1013.1 3.2 19.5 26.6 40.9 107.4 100.9 346.9
Giles* 05/09 18:50 26.6 26 6.54 5.5 0 2 1016.3 0 14.7 19.9 27.4 71.4 61.8 211.7
Gingin Airport 05/09 17:10 16.3 75 10.4 11.9 17 26 1015.4 0.2 23.3 28.2 45.9 120.7 119.2 411.6
Golden Grove 05/09 17:10 22.2 35 6.87 6 17 26 1013.1 0 15.6 21.2 29.9 78.0 68.7 235.3
Gooseberry Hill 05/09 17:10 15.4 77 10.12 11.4 17 22 1013.1 0 22.8 27.9 45.1 118.7 116.6 402.3
Gudai-Darri Mine 05/09 17:02 32 14 4.73 1.2 19 24 1013.1 0 10.8 16.6 20.5 53.1 40.9 138.6
Halls Creek 05/09 18:50 31.4 23 7.52 7.8 7 11 1012.7 0 16.6 20.0 28.7 75.1 67.9 233.4
Hopetoun North 05/09 17:10 16.8 52 7.43 6.9 7 11 1015.5 0 17.0 23.3 34.0 89.0 80.3 275.5
Hyden 05/09 09:00 7.5 93 7.45 6.4 2 1013.1 0 17.4 25.8 38.2 100.1 90.6 310.3
Iron Bridge Mine 05/09 17:10 33.3 16 5.79 4.1 17 24 1013.1 0.2 13.0 17.6 23.1 60.1 49.9 170.3
Jacup 05/09 17:10 15 54 6.92 5.8 15 20 1015.3 0 16.0 23.0 32.9 85.9 75.9 259.7
Jandakot 05/09 17:10 17.8 66 10.02 11.4 20 24 1014.2 0 22.4 27.0 43.4 114.2 111.8 385.8
Jarrahwood 05/09 09:00 14.5 78 9.7 10.7 7 1013.1 0.2 21.9 27.5 43.9 115.4 112.2 386.8
Jurien Bay 05/09 09:00 15.5 74 9.78 11 15 1020.1 0 22.0 27.6 44.0 115.6 112.4 387.8
Kalbarri 05/09 09:00 16.2 61 8.41 8.8 4 1020.9 0 19.1 25.2 38.2 100.1 93.6 321.9
Kalgoorlie-Boulder 05/09 17:10 21.7 28 5.34 2.4 13 20 1015.3 0 12.4 19.3 25.1 65.2 52.7 178.9
Kalumburu 05/09 18:50 29.5 56 16.53 19.8 15 20 1014 0 35.3 33.7 62.2 164.4 177.2 615.6
Karijini North 05/09 17:10 31.7 10 3.32 -3.6 19 30 1013 0 8.0 15.1 16.8 43.3 28.6 95.2
Karnet 05/09 15:00 14.5 84 10.45 11.8 2 1013.1 0.5 23.5 28.8 47.1 123.8 122.5 423.0
Karratha 05/09 17:10 28.2 35 9.62 11.3 28 33 1014.5 0 21.0 23.5 36.8 96.7 93.5 323.0
Katanning Rs 05/09 17:10 15.9 61 8.26 8.4 17 26 1014.5 0 18.8 24.8 37.5 98.3 91.5 314.7
Koolan Island / Koolan Central 05/09 17:10 26.3 72 17.82 20.8 26 28 1013.1 0 38.3 37.2 70.5 186.4 203.3 706.0
Kununurra Airport 05/09 18:50 32.9 38 13.46 16.7 19 26 1012.4 0 28.7 27.7 47.8 126.2 131.2 455.7
Lake Grace 05/09 17:10 16.2 51 7.03 6.1 13 20 1015.5 0 16.1 22.9 32.8 85.7 76.1 260.5
Lancelin (Defence) 05/09 17:10 15.2 101 13.11 15.2 24 39 1014.8 3.4 29.2 33.3 58.5 154.2 160.1 554.1
Laverton 05/09 17:10 23.5 27 5.71 3.4 13 19 1015.9 0 13.1 19.4 25.7 67.0 55.4 188.7
Learmonth 05/09 17:10 24.3 49 10.84 12.9 35 46 1017.8 0 23.8 26.5 43.3 113.8 113.2 391.7
Legendre Island 05/09 17:10 25.1 62 14.35 17.3 24 26 1015 0 31.1 31.8 56.5 149.2 157.2 545.4
Leinster 05/09 17:10 25.1 21 4.86 1.3 19 26 1013.7 0 11.3 18.0 22.6 58.6 45.7 154.7
Leonora Airport 05/09 17:10 23.8 24 5.16 2 17 20 1014.8 0 12.0 18.6 23.9 62.1 49.5 167.9
Lombadina 05/09 17:10 26.8 73 18.58 21.6 15 24 1013.1 0 39.9 38.4 73.4 194.3 213.1 740.4
Mandora 05/09 17:10 26.8 64 16.29 19.4 19 24 1014.2 0 35.0 34.4 63.4 167.5 180.2 625.7
Mandurah 05/09 17:10 16.8 76 10.87 12.5 28 39 1014.1 4.8 24.3 28.7 47.5 125.0 124.7 430.9
Manjimup 05/09 17:10 15.2 72 9.35 10.2 17 22 1013.4 2.2 21.1 26.7 42.1 110.6 106.5 367.1
Marble Bar 05/09 17:10 33.6 14 5.15 2.4 19 26 1012.9 0 11.6 16.8 21.3 55.2 43.9 149.2
Mardie 05/09 17:10 26.2 46 11.32 13.7 32 41 1015.2 0 24.7 26.6 43.9 115.6 116.1 402.1
Meekatharra 05/09 17:10 26 20 4.87 1.3 22 30 1014 0 11.3 17.8 22.4 58.1 45.3 153.5
Millendon (Swan Valley) 05/09 17:10 17.3 69 10.16 11.6 7 11 1014.5 0 22.7 27.4 44.3 116.5 114.4 394.9
Morawa Airport 05/09 17:10 19.3 46 7.63 7.4 19 28 1015.3 0 17.3 23.0 33.7 88.2 80.2 275.4
Mount Keith 05/09 17:10 25.9 19 4.6 0.5 15 22 1013.1 0 10.7 17.5 21.6 56.0 42.7 144.3
Mount Magnet Airport 05/09 17:10 23.4 27 5.68 3.4 24 28 1014.6 0 13.1 19.4 25.6 66.7 55.1 187.6
Mullewa 05/09 09:00 14.9 69 8.79 9.3 6 1013.1 0 19.9 25.9 40.0 105.0 99.5 342.4
Munglinup West 05/09 17:10 15.9 63 8.53 8.9 9 13 1015.8 0 19.3 25.3 38.6 101.2 95.1 327.1
Murchison 05/09 09:00 16.1 74 10.14 11.5 9 1020.6 0 22.7 28.0 45.2 118.7 116.5 402.0
Narrogin 05/09 09:00 13.5 72 8.42 8.6 11 1013.1 0 19.2 25.7 39.2 102.9 96.4 331.4
Newdegate 05/09 17:10 14.7 62 7.81 7.5 11 13 1015.7 0 17.9 24.5 36.4 95.3 87.3 299.7
Newman Airport 05/09 17:10 30.8 14 4.43 0.2 19 24 1012.9 0 10.3 16.5 20.0 51.6 38.7 130.8
Norseman Airport 05/09 17:10 20.2 37 6.47 5.1 17 22 1015.7 0 14.8 21.1 29.3 76.5 66.0 225.8
North Island 05/09 17:10 18.6 69 10.98 12.8 30 37 1015.8 0 24.4 28.4 46.9 123.5 123.5 426.8
Northam 05/09 09:00 15.3 43 5.62 3 15 1013.1 0 13.2 21.0 28.0 72.9 60.0 204.2
Onslow Airport 05/09 17:10 24.7 60 13.58 16.4 30 37 1016.7 0 29.5 30.7 53.7 141.7 147.8 512.5
Paraburdoo 05/09 17:10 31.2 11 3.56 -2.7 26 33 1012.7 0 8.5 15.4 17.5 45.2 30.9 103.1
Pardoo 05/09 09:00 26.5 71 17.77 20.9 4 1017.5 0 38.2 37.3 70.3 185.9 202.6 703.8
Paynes Find 05/09 09:00 16.3 59 8.19 8.4 2 1020.2 0 18.6 24.8 37.3 97.7 90.6 311.5
Pearce 05/09 17:10 17.8 63 9.56 10.7 19 22 1014.4 0 21.4 26.3 41.6 109.3 105.8 364.9
Perth 05/09 17:10 17.4 67 9.93 11.2 11 20 1014.5 0 22.2 27.0 43.3 113.8 111.2 383.7
Perth Airport 05/09 17:10 17.6 66 9.9 11.2 13 20 1014.2 0 22.2 26.9 43.1 113.2 110.5 381.3
Port Hedland 05/09 17:10 26.9 55 14.08 17.1 24 32 1014.4 0 30.4 30.7 54.1 142.9 149.9 520.3
Portable Btsa (Dfes) 05/09 17:00 21.7 51 9.73 11.3 17 22 1013.1 0 21.6 25.4 40.2 105.7 102.7 354.4
Portable Btsd (Dfes) 05/09 17:00 20.5 36 6.41 5 9 13 1013.1 0 14.7 20.9 28.9 75.4 65.0 222.1
Portable Btsf (Dfes) 05/09 17:00 27.9 19 5.14 2.2 4 6 1013.1 0 11.8 17.8 22.7 58.9 46.8 159.1
Portable Btsh (Dfes) 05/09 17:00 16.9 52 7.48 7.1 13 13 1013.1 0 17.1 23.3 34.1 89.2 80.7 276.8
Portable Btsj (Dfes) 05/09 17:00 17.4 68 10.08 11.5 19 22 1013.1 0.6 22.6 27.2 43.8 115.3 113.1 390.2
Portable Btsl (Dfes) 05/09 17:00 22 28 5.43 2.6 19 22 1013.1 0 12.6 19.3 25.2 65.6 53.3 181.2
Portable Btsm (Dfes) 05/09 17:00 29.7 16 4.77 1.6 11 15 1013.1 0 11.0 17.0 21.2 54.9 42.4 143.6
Portable Btsn (Dfes) 05/09 17:00 24.9 21 4.81 1.3 13 17 1013.1 0 11.2 17.9 22.5 58.3 45.3 153.3
Portable Btso (Dfes) 05/09 17:00 15 75 9.62 10.7 11 13 1013.1 3 21.7 27.2 43.3 113.8 110.4 380.6
Rocky Gully South 05/09 17:10 15.6 73 9.71 10.8 11 17 1013.1 0 21.9 27.2 43.3 113.9 110.7 381.9
Roebourne Airport 05/09 17:10 29.9 25 7.54 7.8 30 39 1014.2 0 16.7 20.4 29.3 76.7 69.4 238.6
Rottnest Island 05/09 17:10 15.2 92 11.94 13.9 33 43 1013.9 0.8 26.7 31.1 53.1 140.0 142.6 493.2
Salmon Gums Rs 05/09 17:10 18.4 46 7.23 6.6 9 15 1013.1 0 16.5 22.6 32.5 85.1 76.2 261.3
Shannon 05/09 17:10 15.7 74 9.9 11.1 9 13 1013.1 0.2 22.3 27.4 44.1 115.8 113.1 390.3
Shark Bay Airport 05/09 17:10 21 55 10.07 11.6 20 28 1017 0 22.3 26.3 42.0 110.5 108.2 373.6
Solomon Airport 05/09 17:10 30.4 12 3.72 -2.2 20 30 1011.8 0 8.8 15.7 18.1 46.7 32.5 108.9
Southern Cross Airport 05/09 17:10 19.9 43 7.39 7 15 19 1015.7 0 16.8 22.5 32.6 85.3 76.8 263.6
Swanbourne 05/09 17:10 17.5 100 14.91 17.5 19 30 1013.1 0 32.9 35.7 64.9 171.4 182.1 631.0
Telfer 05/09 17:10 32.9 15 5.31 2.9 7 9 1013 0 12.0 17.1 21.9 56.8 45.7 155.6
Thevenard Island 05/09 17:10 24.3 65 14.38 17.3 30 39 1016.7 0 31.2 32.2 57.3 151.3 159.5 553.1
Troughton Island 05/09 18:50 27.7 73 19.53 22.4 20 24 1014.5 0 41.8 39.8 77.0 203.7 224.9 781.7
Truscott 05/09 18:50 28.5 62 17.33 20.5 9 19 1013.9 0 37.1 35.5 66.4 175.6 190.6 662.3
Walpole North 05/09 17:10 14.8 91 11.53 13.3 6 9 1012.8 0 25.8 30.5 51.5 135.7 137.3 474.6
Wandering 05/09 17:10 15.3 72 9.4 10.3 9 13 1013.1 0 21.2 26.7 42.2 111.0 107.0 368.8
Warburton 05/09 18:50 26.3 19 4.7 0.9 6 11 1016.4 0 10.9 17.7 21.9 56.8 43.6 147.4
West Angelas 05/09 17:10 29.3 15 4.38 0 15 26 1011.6 0 10.2 16.6 20.1 52.1 38.9 131.3
West Musgrave Airport 05/09 17:10 26.7 19 4.81 1.2 6 7 1013.1 0 11.2 17.6 22.0 57.1 44.3 150.1
Wiluna Airport 05/09 17:10 27.4 17 4.47 0.2 20 26 1013.6 0 10.4 17.1 20.9 54.1 40.7 137.5
Windy Harbour 05/09 09:00 15.5 65 8.59 9.1 9 1016 0 19.5 25.5 39.0 102.4 96.4 331.6
Witchcliffe West 05/09 17:10 12.4 93 10.16 11.3 15 22 1013.8 3.4 23.0 29.0 47.1 123.9 121.9 420.4
Wongan Hills 05/09 09:00 13.8 69 8.22 8.3 9 1020.8 0 18.8 25.6 38.6 101.2 94.0 323.0
Wyndham Airport 05/09 18:50 30.9 43 13.69 16.9 28 37 1012.5 0 29.3 28.6 49.9 131.7 137.4 477.1
Yampi Sound (Defence) 05/09 17:10 32.3 25 8.58 9.8 9 15 1017 0 18.7 21.3 31.8 83.4 78.1 269.6
York 05/09 09:00 12 97 10.34 11.6 0 1020.6 0 23.4 29.7 48.5 127.5 125.8 433.9

Last Refresh: 05-Sep-2026 18:59:41

Bureau of Meteorology